AAL3318 KPHX-KPHL
Flight info
| Callsign | AAL3318 |
|---|---|
| Flight time | 3h 34m |
| Altitude | 35000 |
| Route | FORPE1 ABQ TOTOE ICT BUM STL J24 VHP ROD J152 JST BOJID4 |
| Aircraft | A321/M-SDE3FGHIRWY/LB1 |
Departure
| Time | 2026-04-30 07:16 |
|---|---|
| Airport | Phoenix Sky Harbor International Airport (KPHX) |
Arrival
| Time | 2026-04-30 10:51 |
|---|---|
| Airport | Philadelphia International Airport (KPHL) |
| Time | Latitude | Longitude | Altitude | Speed | Heading |
|---|---|---|---|---|---|
| 2026-04-30 06:36 | 33.43729 | -112.00239 | 1122 ft | 0 kts | 90° |
| 2026-04-30 07:08 | 33.43728 | -112.00262 | 1123 ft | 4 kts | 78° |
| 2026-04-30 07:09 | 33.43718 | -112.00290 | 1117 ft | 4 kts | 41° |
| 2026-04-30 07:09 | 33.43700 | -112.00300 | 1116 ft | 1 kts | 0° |
| 2026-04-30 07:11 | 33.43708 | -112.00300 | 1114 ft | 3 kts | 0° |
| 2026-04-30 07:11 | 33.43748 | -112.00300 | 1116 ft | 8 kts | 0° |
| 2026-04-30 07:12 | 33.43815 | -112.00299 | 1118 ft | 11 kts | 0° |
| 2026-04-30 07:12 | 33.43890 | -112.00283 | 1123 ft | 11 kts | 43° |
| 2026-04-30 07:12 | 33.43904 | -112.00186 | 1125 ft | 14 kts | 89° |
| 2026-04-30 07:12 | 33.43904 | -112.00051 | 1125 ft | 17 kts | 90° |
| 2026-04-30 07:13 | 33.43903 | -111.99895 | 1125 ft | 20 kts | 90° |
| 2026-04-30 07:13 | 33.43903 | -111.99728 | 1125 ft | 20 kts | 90° |
| 2026-04-30 07:13 | 33.43903 | -111.99562 | 1126 ft | 20 kts | 90° |
| 2026-04-30 07:13 | 33.43903 | -111.99395 | 1126 ft | 20 kts | 90° |
| 2026-04-30 07:14 | 33.43909 | -111.99256 | 1118 ft | 12 kts | 70° |
| 2026-04-30 07:14 | 33.43975 | -111.99226 | 1123 ft | 9 kts | 3° |
| 2026-04-30 07:14 | 33.44022 | -111.99225 | 1135 ft | 5 kts | 1° |
| 2026-04-30 07:14 | 33.44061 | -111.99229 | 1137 ft | 8 kts | 345° |
| 2026-04-30 07:15 | 33.44084 | -111.99299 | 1135 ft | 10 kts | 269° |
| 2026-04-30 07:15 | 33.44084 | -111.99458 | 1135 ft | 43 kts | 270° |
| 2026-04-30 07:15 | 33.44084 | -112.00093 | 1132 ft | 108 kts | 270° |
| 2026-04-30 07:15 | 33.44085 | -112.01218 | 1132 ft | 160 kts | 270° |
| 2026-04-30 07:16 | 33.44091 | -112.02695 | 1356 ft | 183 kts | 270° |
| 2026-04-30 07:16 | 33.44100 | -112.04204 | 2064 ft | 181 kts | 271° |
| 2026-04-30 07:16 | 33.44123 | -112.05695 | 2746 ft | 178 kts | 271° |
| 2026-04-30 07:16 | 33.44156 | -112.07203 | 3079 ft | 189 kts | 272° |
| 2026-04-30 07:17 | 33.44208 | -112.08858 | 3182 ft | 209 kts | 272° |
| 2026-04-30 07:17 | 33.44262 | -112.10671 | 3306 ft | 228 kts | 272° |
| 2026-04-30 07:17 | 33.44367 | -112.14578 | 4325 ft | 239 kts | 271° |
| 2026-04-30 07:18 | 33.44422 | -112.16581 | 4915 ft | 242 kts | 272° |
| 2026-04-30 07:18 | 33.44838 | -112.18529 | 5426 ft | 247 kts | 303° |
| 2026-04-30 07:18 | 33.46151 | -112.19828 | 5981 ft | 252 kts | 340° |
| 2026-04-30 07:18 | 33.47912 | -112.20165 | 6342 ft | 268 kts | 5° |
| 2026-04-30 07:19 | 33.49710 | -112.19449 | 6746 ft | 281 kts | 33° |
| 2026-04-30 07:19 | 33.51036 | -112.17724 | 7263 ft | 287 kts | 63° |
| 2026-04-30 07:19 | 33.51637 | -112.15442 | 7851 ft | 290 kts | 77° |
| 2026-04-30 07:19 | 33.52101 | -112.13077 | 8510 ft | 292 kts | 77° |
| 2026-04-30 07:20 | 33.52560 | -112.10689 | 9098 ft | 296 kts | 78° |
| 2026-04-30 07:20 | 33.53024 | -112.08271 | 9699 ft | 300 kts | 78° |
| 2026-04-30 07:20 | 33.53500 | -112.05816 | 10225 ft | 306 kts | 78° |
| 2026-04-30 07:20 | 33.54000 | -112.03243 | 10350 ft | 327 kts | 77° |
| 2026-04-30 07:21 | 33.54534 | -112.00501 | 10468 ft | 347 kts | 77° |
| 2026-04-30 07:21 | 33.55095 | -111.97631 | 10781 ft | 359 kts | 77° |
| 2026-04-30 07:21 | 33.55671 | -111.94691 | 11261 ft | 365 kts | 77° |
| 2026-04-30 07:21 | 33.56255 | -111.91715 | 11785 ft | 369 kts | 77° |
| 2026-04-30 07:22 | 33.57444 | -111.85653 | 12817 ft | 377 kts | 77° |
| 2026-04-30 07:22 | 33.58042 | -111.82580 | 13344 ft | 381 kts | 77° |
| 2026-04-30 07:22 | 33.58645 | -111.79465 | 13857 ft | 386 kts | 77° |
| 2026-04-30 07:23 | 33.59258 | -111.76314 | 14284 ft | 390 kts | 77° |
| 2026-04-30 07:23 | 33.59879 | -111.73125 | 14740 ft | 395 kts | 77° |
| 2026-04-30 07:23 | 33.60505 | -111.69902 | 15202 ft | 399 kts | 77° |
| 2026-04-30 07:23 | 33.61136 | -111.66646 | 15668 ft | 403 kts | 77° |
| 2026-04-30 07:24 | 33.61769 | -111.63355 | 16129 ft | 407 kts | 77° |
| 2026-04-30 07:24 | 33.62408 | -111.60030 | 16589 ft | 411 kts | 77° |
| 2026-04-30 07:24 | 33.63051 | -111.56670 | 17044 ft | 415 kts | 77° |
| 2026-04-30 07:24 | 33.63698 | -111.53285 | 17486 ft | 419 kts | 77° |
| 2026-04-30 07:25 | 33.64354 | -111.49852 | 17944 ft | 423 kts | 77° |
| 2026-04-30 07:25 | 33.65014 | -111.46393 | 18369 ft | 427 kts | 77° |
| 2026-04-30 07:25 | 33.65683 | -111.42899 | 18737 ft | 431 kts | 77° |
| 2026-04-30 07:25 | 33.66345 | -111.39422 | 19121 ft | 435 kts | 77° |
| 2026-04-30 07:26 | 33.67022 | -111.35860 | 19486 ft | 440 kts | 77° |
| 2026-04-30 07:26 | 33.67706 | -111.32261 | 19872 ft | 444 kts | 78° |
| 2026-04-30 07:26 | 33.68399 | -111.28625 | 20255 ft | 449 kts | 77° |
| 2026-04-30 07:26 | 33.69367 | -111.25043 | 20602 ft | 453 kts | 66° |
| 2026-04-30 07:27 | 33.70621 | -111.21551 | 20959 ft | 457 kts | 66° |
| 2026-04-30 07:27 | 33.71891 | -111.18021 | 21302 ft | 461 kts | 66° |
| 2026-04-30 07:27 | 33.73166 | -111.14463 | 21648 ft | 466 kts | 66° |
| 2026-04-30 07:27 | 33.74445 | -111.10880 | 22003 ft | 470 kts | 66° |
| 2026-04-30 07:28 | 33.75737 | -111.07254 | 22320 ft | 474 kts | 66° |
| 2026-04-30 07:28 | 33.77039 | -111.03593 | 22629 ft | 479 kts | 65° |
| 2026-04-30 07:28 | 33.77907 | -111.01148 | 22847 ft | 481 kts | 66° |
| 2026-04-30 07:28 | 33.79224 | -110.97435 | 23178 ft | 485 kts | 66° |
| 2026-04-30 07:29 | 33.80551 | -110.93693 | 23503 ft | 488 kts | 65° |
| 2026-04-30 07:29 | 33.81892 | -110.89913 | 23765 ft | 492 kts | 66° |
| 2026-04-30 07:29 | 33.83238 | -110.86116 | 24024 ft | 495 kts | 66° |
| 2026-04-30 07:29 | 33.84593 | -110.82295 | 24323 ft | 498 kts | 66° |
| 2026-04-30 07:30 | 33.87323 | -110.74575 | 24840 ft | 505 kts | 66° |
| 2026-04-30 07:30 | 33.88698 | -110.70665 | 25103 ft | 508 kts | 66° |
| 2026-04-30 07:30 | 33.90078 | -110.66734 | 25360 ft | 511 kts | 66° |
| 2026-04-30 07:31 | 33.91448 | -110.62833 | 25628 ft | 514 kts | 66° |
| 2026-04-30 07:31 | 33.92863 | -110.58807 | 25893 ft | 517 kts | 66° |
| 2026-04-30 07:31 | 33.94265 | -110.54820 | 26143 ft | 520 kts | 66° |
| 2026-04-30 07:31 | 33.95677 | -110.50799 | 26374 ft | 523 kts | 66° |
| 2026-04-30 07:32 | 33.97076 | -110.46798 | 26613 ft | 525 kts | 66° |
| 2026-04-30 07:32 | 33.98496 | -110.42727 | 26833 ft | 529 kts | 66° |
| 2026-04-30 07:32 | 33.99925 | -110.38631 | 27064 ft | 532 kts | 66° |
| 2026-04-30 07:32 | 34.01359 | -110.34512 | 27303 ft | 534 kts | 66° |
| 2026-04-30 07:33 | 34.02801 | -110.30370 | 27531 ft | 537 kts | 67° |
| 2026-04-30 07:33 | 34.04248 | -110.26208 | 27853 ft | 539 kts | 66° |
| 2026-04-30 07:33 | 34.05702 | -110.22026 | 28107 ft | 542 kts | 66° |
| 2026-04-30 07:33 | 34.07166 | -110.17822 | 28327 ft | 545 kts | 66° |
| 2026-04-30 07:34 | 34.08637 | -110.13586 | 28561 ft | 547 kts | 66° |
| 2026-04-30 07:34 | 34.10102 | -110.09346 | 28803 ft | 550 kts | 66° |
| 2026-04-30 07:34 | 34.11571 | -110.05074 | 29030 ft | 553 kts | 66° |
| 2026-04-30 07:34 | 34.13043 | -110.00779 | 29252 ft | 555 kts | 66° |
| 2026-04-30 07:35 | 34.14523 | -109.96463 | 29478 ft | 558 kts | 66° |
| 2026-04-30 07:35 | 34.16014 | -109.92127 | 29687 ft | 560 kts | 66° |
| 2026-04-30 07:35 | 34.17511 | -109.87771 | 29881 ft | 563 kts | 66° |
| 2026-04-30 07:35 | 34.19015 | -109.83394 | 30079 ft | 565 kts | 66° |
| 2026-04-30 07:36 | 34.20521 | -109.78999 | 30292 ft | 566 kts | 67° |
| 2026-04-30 07:36 | 34.22026 | -109.74600 | 30524 ft | 567 kts | 67° |
| 2026-04-30 07:36 | 34.23528 | -109.70197 | 30747 ft | 567 kts | 67° |
| 2026-04-30 07:36 | 34.25029 | -109.65793 | 30948 ft | 567 kts | 67° |
| 2026-04-30 07:37 | 34.26531 | -109.61389 | 31234 ft | 567 kts | 67° |
| 2026-04-30 07:37 | 34.28030 | -109.56982 | 31518 ft | 567 kts | 68° |
| 2026-04-30 07:37 | 34.29527 | -109.52574 | 31785 ft | 567 kts | 68° |
| 2026-04-30 07:37 | 34.31021 | -109.48164 | 32036 ft | 567 kts | 68° |
| 2026-04-30 07:38 | 34.32514 | -109.43752 | 32281 ft | 567 kts | 67° |
| 2026-04-30 07:38 | 34.33987 | -109.39396 | 32530 ft | 567 kts | 67° |
| 2026-04-30 07:38 | 34.35478 | -109.34980 | 32768 ft | 567 kts | 67° |
| 2026-04-30 07:38 | 34.36968 | -109.30563 | 33010 ft | 567 kts | 67° |
| 2026-04-30 07:39 | 34.38453 | -109.26145 | 33249 ft | 566 kts | 68° |
| 2026-04-30 07:39 | 34.39936 | -109.21728 | 33488 ft | 566 kts | 67° |
| 2026-04-30 07:39 | 34.41419 | -109.17313 | 33703 ft | 566 kts | 67° |
| 2026-04-30 07:39 | 34.42878 | -109.12899 | 33908 ft | 566 kts | 69° |
| 2026-04-30 07:40 | 34.44246 | -109.08420 | 34090 ft | 566 kts | 70° |
| 2026-04-30 07:40 | 34.45508 | -109.03908 | 34345 ft | 565 kts | 72° |
| 2026-04-30 07:40 | 34.46705 | -108.99359 | 34523 ft | 565 kts | 72° |
| 2026-04-30 07:40 | 34.47877 | -108.94815 | 34707 ft | 565 kts | 72° |
| 2026-04-30 07:41 | 34.49063 | -108.90264 | 34877 ft | 565 kts | 72° |
| 2026-04-30 07:41 | 34.51508 | -108.81215 | 34914 ft | 564 kts | 71° |
| 2026-04-30 07:42 | 34.54019 | -108.72202 | 34934 ft | 564 kts | 71° |
| 2026-04-30 07:42 | 34.56499 | -108.63237 | 34933 ft | 564 kts | 71° |
| 2026-04-30 07:43 | 34.58961 | -108.54196 | 34921 ft | 564 kts | 71° |
| 2026-04-30 07:43 | 34.61403 | -108.45156 | 34935 ft | 564 kts | 71° |
| 2026-04-30 07:44 | 34.63844 | -108.36100 | 34937 ft | 564 kts | 71° |
| 2026-04-30 07:44 | 34.66288 | -108.27026 | 34937 ft | 565 kts | 71° |
| 2026-04-30 07:45 | 34.68732 | -108.17955 | 34937 ft | 565 kts | 71° |
| 2026-04-30 07:45 | 34.71170 | -108.08870 | 34945 ft | 566 kts | 71° |
| 2026-04-30 07:46 | 34.73596 | -107.99771 | 34942 ft | 566 kts | 71° |
| 2026-04-30 07:46 | 34.76018 | -107.90663 | 34946 ft | 566 kts | 71° |
| 2026-04-30 07:47 | 34.78436 | -107.81549 | 34944 ft | 566 kts | 71° |
| 2026-04-30 07:47 | 34.80850 | -107.72421 | 34936 ft | 566 kts | 71° |
| 2026-04-30 07:48 | 34.83247 | -107.63299 | 34940 ft | 567 kts | 71° |
| 2026-04-30 07:48 | 34.85643 | -107.54157 | 34930 ft | 567 kts | 72° |
| 2026-04-30 07:49 | 34.88042 | -107.45015 | 34913 ft | 567 kts | 72° |
| 2026-04-30 07:49 | 34.90411 | -107.35919 | 34925 ft | 567 kts | 71° |
| 2026-04-30 07:50 | 34.92791 | -107.26759 | 34904 ft | 567 kts | 71° |
| 2026-04-30 07:50 | 34.95162 | -107.17598 | 34886 ft | 567 kts | 72° |
| 2026-04-30 07:51 | 34.97526 | -107.08404 | 34899 ft | 568 kts | 72° |
| 2026-04-30 07:51 | 34.99886 | -106.99211 | 34899 ft | 568 kts | 71° |
| 2026-04-30 07:52 | 35.02243 | -106.89985 | 34889 ft | 569 kts | 71° |
| 2026-04-30 07:52 | 35.03423 | -106.85371 | 35078 ft | 570 kts | 71° |
| 2026-04-30 07:52 | 35.04714 | -106.80807 | 35096 ft | 568 kts | 64° |
| 2026-04-30 07:53 | 35.07986 | -106.72047 | 35124 ft | 567 kts | 62° |
| 2026-04-30 07:53 | 35.11265 | -106.63283 | 35092 ft | 568 kts | 62° |
| 2026-04-30 07:54 | 35.14543 | -106.54474 | 35063 ft | 569 kts | 62° |
| 2026-04-30 07:54 | 35.16180 | -106.50068 | 34892 ft | 570 kts | 62° |
| 2026-04-30 07:54 | 35.17797 | -106.45719 | 34894 ft | 570 kts | 62° |
| 2026-04-30 07:55 | 35.21073 | -106.36905 | 34896 ft | 569 kts | 62° |
| 2026-04-30 07:55 | 35.24343 | -106.28072 | 34917 ft | 570 kts | 62° |
| 2026-04-30 07:56 | 35.27602 | -106.19224 | 34924 ft | 570 kts | 62° |
| 2026-04-30 07:56 | 35.30862 | -106.10368 | 34947 ft | 571 kts | 62° |
| 2026-04-30 07:57 | 35.34116 | -106.01505 | 34971 ft | 570 kts | 62° |
| 2026-04-30 07:57 | 35.37360 | -105.92644 | 34928 ft | 571 kts | 62° |
| 2026-04-30 07:58 | 35.40593 | -105.83760 | 34935 ft | 571 kts | 62° |
| 2026-04-30 07:58 | 35.43829 | -105.74859 | 34947 ft | 571 kts | 62° |
| 2026-04-30 07:59 | 35.47062 | -105.65961 | 34946 ft | 571 kts | 62° |
| 2026-04-30 07:59 | 35.50273 | -105.57100 | 34931 ft | 572 kts | 62° |
| 2026-04-30 08:00 | 35.55120 | -105.43669 | 35015 ft | 575 kts | 62° |
| 2026-04-30 08:00 | 35.58344 | -105.34669 | 35084 ft | 576 kts | 63° |
| 2026-04-30 08:01 | 35.61560 | -105.25650 | 35142 ft | 577 kts | 62° |
| 2026-04-30 08:01 | 35.64786 | -105.16617 | 35166 ft | 577 kts | 62° |
| 2026-04-30 08:02 | 35.69622 | -105.03051 | 35170 ft | 577 kts | 62° |
| 2026-04-30 08:03 | 35.72829 | -104.94007 | 35002 ft | 576 kts | 63° |
| 2026-04-30 08:03 | 35.76028 | -104.84953 | 35001 ft | 576 kts | 63° |
| 2026-04-30 08:04 | 35.79220 | -104.75907 | 35010 ft | 576 kts | 63° |
| 2026-04-30 08:04 | 35.82386 | -104.66917 | 35013 ft | 576 kts | 63° |
| 2026-04-30 08:05 | 35.85560 | -104.57859 | 35061 ft | 576 kts | 63° |
| 2026-04-30 08:05 | 35.88719 | -104.48781 | 34986 ft | 576 kts | 63° |
| 2026-04-30 08:06 | 35.91876 | -104.39695 | 34991 ft | 577 kts | 63° |
| 2026-04-30 08:06 | 35.95045 | -104.30596 | 35000 ft | 577 kts | 63° |
| 2026-04-30 08:07 | 35.98208 | -104.21477 | 34995 ft | 578 kts | 63° |
| 2026-04-30 08:07 | 36.01360 | -104.12338 | 35017 ft | 578 kts | 63° |
| 2026-04-30 08:08 | 36.04513 | -104.03190 | 35036 ft | 579 kts | 63° |
| 2026-04-30 08:08 | 36.07654 | -103.94041 | 35041 ft | 579 kts | 63° |
| 2026-04-30 08:09 | 36.10772 | -103.84923 | 35065 ft | 579 kts | 63° |
| 2026-04-30 08:09 | 36.13892 | -103.75741 | 35071 ft | 579 kts | 63° |
| 2026-04-30 08:10 | 36.17016 | -103.66558 | 35074 ft | 579 kts | 63° |
| 2026-04-30 08:10 | 36.20144 | -103.57374 | 35082 ft | 579 kts | 63° |
| 2026-04-30 08:11 | 36.23261 | -103.48174 | 35108 ft | 580 kts | 62° |
| 2026-04-30 08:11 | 36.26339 | -103.39005 | 35103 ft | 580 kts | 62° |
| 2026-04-30 08:12 | 36.29446 | -103.29749 | 35134 ft | 581 kts | 62° |
| 2026-04-30 08:12 | 36.32553 | -103.20476 | 35159 ft | 582 kts | 62° |
| 2026-04-30 08:13 | 36.35653 | -103.11185 | 35112 ft | 582 kts | 62° |
| 2026-04-30 08:13 | 36.38744 | -103.01901 | 35120 ft | 582 kts | 62° |
| 2026-04-30 08:14 | 36.41806 | -102.92678 | 35116 ft | 581 kts | 62° |
| 2026-04-30 08:14 | 36.44878 | -102.83390 | 35123 ft | 581 kts | 62° |
| 2026-04-30 08:15 | 36.47934 | -102.74103 | 35129 ft | 581 kts | 62° |
| 2026-04-30 08:15 | 36.50995 | -102.64797 | 35117 ft | 582 kts | 62° |
| 2026-04-30 08:16 | 36.54055 | -102.55469 | 35108 ft | 582 kts | 62° |
| 2026-04-30 08:16 | 36.57104 | -102.46153 | 35106 ft | 582 kts | 62° |
| 2026-04-30 08:17 | 36.60153 | -102.36795 | 35071 ft | 584 kts | 62° |
| 2026-04-30 08:17 | 36.63190 | -102.27429 | 35060 ft | 584 kts | 62° |
| 2026-04-30 08:18 | 36.66208 | -102.18098 | 35064 ft | 585 kts | 62° |
| 2026-04-30 08:18 | 36.69246 | -102.08678 | 35074 ft | 586 kts | 62° |
| 2026-04-30 08:19 | 36.71789 | -102.00750 | 35116 ft | 587 kts | 62° |
| 2026-04-30 08:19 | 36.74808 | -101.91289 | 35133 ft | 588 kts | 62° |
| 2026-04-30 08:20 | 36.77822 | -101.81871 | 35144 ft | 589 kts | 62° |
| 2026-04-30 08:20 | 36.80856 | -101.72366 | 35129 ft | 589 kts | 62° |
| 2026-04-30 08:21 | 36.83877 | -101.62853 | 35150 ft | 590 kts | 62° |
| 2026-04-30 08:21 | 36.86893 | -101.53323 | 35149 ft | 590 kts | 62° |
| 2026-04-30 08:22 | 36.89903 | -101.43776 | 35148 ft | 591 kts | 62° |
| 2026-04-30 08:22 | 36.92904 | -101.34215 | 35151 ft | 591 kts | 62° |
| 2026-04-30 08:23 | 36.95907 | -101.24628 | 35155 ft | 590 kts | 62° |
| 2026-04-30 08:23 | 36.98877 | -101.15122 | 35164 ft | 590 kts | 62° |
| 2026-04-30 08:24 | 37.01850 | -101.05554 | 35181 ft | 591 kts | 62° |
| 2026-04-30 08:24 | 37.04732 | -100.95894 | 35178 ft | 596 kts | 68° |
| 2026-04-30 08:25 | 37.06957 | -100.85891 | 35181 ft | 597 kts | 69° |
| 2026-04-30 08:25 | 37.09175 | -100.75864 | 35176 ft | 597 kts | 69° |
| 2026-04-30 08:26 | 37.11392 | -100.65833 | 35170 ft | 597 kts | 69° |
| 2026-04-30 08:26 | 37.13604 | -100.55795 | 35172 ft | 597 kts | 69° |
| 2026-04-30 08:27 | 37.15797 | -100.45796 | 35163 ft | 598 kts | 69° |
| 2026-04-30 08:27 | 37.17977 | -100.35736 | 35159 ft | 598 kts | 69° |
| 2026-04-30 08:28 | 37.20155 | -100.25680 | 35160 ft | 598 kts | 69° |
| 2026-04-30 08:28 | 37.22337 | -100.15599 | 35177 ft | 598 kts | 69° |
| 2026-04-30 08:29 | 37.24502 | -100.05501 | 35166 ft | 599 kts | 69° |
| 2026-04-30 08:29 | 37.26659 | -99.95392 | 35173 ft | 599 kts | 70° |
| 2026-04-30 08:30 | 37.28807 | -99.85281 | 35171 ft | 599 kts | 70° |
| 2026-04-30 08:30 | 37.30940 | -99.75233 | 35188 ft | 599 kts | 69° |
| 2026-04-30 08:31 | 37.33078 | -99.65125 | 35152 ft | 597 kts | 70° |
| 2026-04-30 08:31 | 37.35189 | -99.55050 | 35155 ft | 596 kts | 70° |
| 2026-04-30 08:32 | 37.37288 | -99.44972 | 35165 ft | 596 kts | 70° |
| 2026-04-30 08:32 | 37.39391 | -99.34878 | 35177 ft | 596 kts | 69° |
| 2026-04-30 08:33 | 37.41494 | -99.24798 | 35178 ft | 596 kts | 70° |
| 2026-04-30 08:33 | 37.43560 | -99.14777 | 35171 ft | 596 kts | 70° |
| 2026-04-30 08:34 | 37.45619 | -99.04682 | 35187 ft | 595 kts | 70° |
| 2026-04-30 08:34 | 37.47678 | -98.94596 | 35191 ft | 594 kts | 70° |
| 2026-04-30 08:35 | 37.49728 | -98.84522 | 35191 ft | 593 kts | 70° |
| 2026-04-30 08:35 | 37.51769 | -98.74452 | 35191 ft | 593 kts | 70° |
| 2026-04-30 08:36 | 37.53785 | -98.64367 | 35193 ft | 593 kts | 70° |
| 2026-04-30 08:36 | 37.55780 | -98.54370 | 35193 ft | 592 kts | 70° |
| 2026-04-30 08:37 | 37.57786 | -98.44328 | 35180 ft | 591 kts | 70° |
| 2026-04-30 08:37 | 37.59791 | -98.34269 | 35185 ft | 591 kts | 70° |
| 2026-04-30 08:38 | 37.61782 | -98.24231 | 35184 ft | 589 kts | 70° |
| 2026-04-30 08:38 | 37.63739 | -98.14208 | 35177 ft | 588 kts | 70° |
| 2026-04-30 08:39 | 37.65690 | -98.04190 | 35171 ft | 587 kts | 70° |
| 2026-04-30 08:39 | 37.67625 | -97.94260 | 35171 ft | 586 kts | 70° |
| 2026-04-30 08:40 | 37.69562 | -97.84274 | 35212 ft | 585 kts | 70° |
| 2026-04-30 08:40 | 37.71465 | -97.74384 | 35134 ft | 576 kts | 70° |
| 2026-04-30 08:41 | 37.73342 | -97.64556 | 35142 ft | 575 kts | 70° |
| 2026-04-30 08:41 | 37.75217 | -97.54731 | 35183 ft | 576 kts | 71° |
| 2026-04-30 08:42 | 37.77049 | -97.44864 | 35199 ft | 576 kts | 71° |
| 2026-04-30 08:42 | 37.78819 | -97.35051 | 35197 ft | 575 kts | 72° |
| 2026-04-30 08:43 | 37.80595 | -97.25185 | 35194 ft | 575 kts | 71° |
| 2026-04-30 08:43 | 37.82382 | -97.15322 | 35194 ft | 575 kts | 71° |
| 2026-04-30 08:44 | 37.84173 | -97.05447 | 35194 ft | 575 kts | 72° |
| 2026-04-30 08:44 | 37.85945 | -96.95575 | 35194 ft | 575 kts | 72° |
| 2026-04-30 08:45 | 37.87701 | -96.85708 | 35194 ft | 575 kts | 72° |
| 2026-04-30 08:45 | 37.89452 | -96.75812 | 35199 ft | 575 kts | 72° |
| 2026-04-30 08:46 | 37.91190 | -96.65936 | 35198 ft | 575 kts | 72° |
| 2026-04-30 08:46 | 37.92930 | -96.56040 | 35192 ft | 575 kts | 72° |
| 2026-04-30 08:47 | 37.94660 | -96.46157 | 35218 ft | 574 kts | 72° |
| 2026-04-30 08:47 | 37.96375 | -96.36273 | 35198 ft | 574 kts | 72° |
| 2026-04-30 08:48 | 37.98066 | -96.26478 | 35193 ft | 573 kts | 72° |
| 2026-04-30 08:48 | 37.99759 | -96.16614 | 35187 ft | 572 kts | 72° |
| 2026-04-30 08:49 | 38.01442 | -96.06754 | 35188 ft | 572 kts | 72° |
| 2026-04-30 08:49 | 38.03124 | -95.96903 | 35183 ft | 571 kts | 72° |
| 2026-04-30 08:50 | 38.04790 | -95.87037 | 35210 ft | 571 kts | 73° |
| 2026-04-30 08:50 | 38.06424 | -95.77254 | 35144 ft | 564 kts | 73° |
| 2026-04-30 08:51 | 38.08056 | -95.67520 | 35162 ft | 565 kts | 72° |
| 2026-04-30 08:51 | 38.09687 | -95.57761 | 35157 ft | 565 kts | 73° |
| 2026-04-30 08:52 | 38.11297 | -95.48052 | 35166 ft | 566 kts | 73° |
| 2026-04-30 08:52 | 38.12902 | -95.38257 | 35170 ft | 566 kts | 73° |
| 2026-04-30 08:53 | 38.14498 | -95.28463 | 35189 ft | 566 kts | 73° |
| 2026-04-30 08:53 | 38.16090 | -95.18671 | 35182 ft | 565 kts | 73° |
| 2026-04-30 08:54 | 38.17681 | -95.08900 | 35184 ft | 565 kts | 73° |
| 2026-04-30 08:54 | 38.19262 | -94.99116 | 35178 ft | 565 kts | 73° |
| 2026-04-30 08:55 | 38.20828 | -94.89331 | 35188 ft | 564 kts | 73° |
| 2026-04-30 08:55 | 38.22383 | -94.79537 | 35186 ft | 564 kts | 73° |
| 2026-04-30 08:56 | 38.23933 | -94.69746 | 35183 ft | 564 kts | 73° |
| 2026-04-30 08:56 | 38.25469 | -94.60032 | 35182 ft | 564 kts | 73° |
| 2026-04-30 08:57 | 38.27002 | -94.50250 | 35200 ft | 563 kts | 73° |
| 2026-04-30 08:57 | 38.28549 | -94.40484 | 35191 ft | 562 kts | 73° |
| 2026-04-30 08:58 | 38.30156 | -94.30751 | 35185 ft | 561 kts | 72° |
| 2026-04-30 08:58 | 38.31776 | -94.21028 | 35186 ft | 561 kts | 72° |
| 2026-04-30 08:59 | 38.33367 | -94.11287 | 35198 ft | 561 kts | 73° |
| 2026-04-30 08:59 | 38.34930 | -94.01560 | 35192 ft | 560 kts | 73° |
| 2026-04-30 09:00 | 38.36477 | -93.91836 | 35192 ft | 560 kts | 73° |
| 2026-04-30 09:00 | 38.38019 | -93.82169 | 35194 ft | 560 kts | 73° |
| 2026-04-30 09:01 | 38.39561 | -93.72464 | 35195 ft | 558 kts | 73° |
| 2026-04-30 09:01 | 38.41090 | -93.62777 | 35187 ft | 556 kts | 73° |
| 2026-04-30 09:02 | 38.43360 | -93.48266 | 35193 ft | 555 kts | 73° |
| 2026-04-30 09:02 | 38.44871 | -93.38612 | 35192 ft | 555 kts | 73° |
| 2026-04-30 09:03 | 38.46359 | -93.29011 | 35190 ft | 555 kts | 73° |
| 2026-04-30 09:03 | 38.47843 | -93.19354 | 35189 ft | 554 kts | 74° |
| 2026-04-30 09:04 | 38.49314 | -93.09681 | 35187 ft | 554 kts | 74° |
| 2026-04-30 09:04 | 38.50783 | -93.00020 | 35189 ft | 554 kts | 74° |
| 2026-04-30 09:05 | 38.52249 | -92.90365 | 35188 ft | 553 kts | 74° |
| 2026-04-30 09:05 | 38.53706 | -92.80715 | 35187 ft | 553 kts | 74° |
| 2026-04-30 09:06 | 38.55147 | -92.71052 | 35186 ft | 553 kts | 74° |
| 2026-04-30 09:06 | 38.56570 | -92.61399 | 35202 ft | 552 kts | 75° |
| 2026-04-30 09:07 | 38.57984 | -92.51839 | 35189 ft | 551 kts | 75° |
| 2026-04-30 09:07 | 38.59400 | -92.42220 | 35183 ft | 550 kts | 75° |
| 2026-04-30 09:08 | 38.60801 | -92.32619 | 35178 ft | 550 kts | 75° |
| 2026-04-30 09:08 | 38.62198 | -92.22998 | 35180 ft | 549 kts | 75° |
| 2026-04-30 09:09 | 38.63582 | -92.13389 | 35207 ft | 549 kts | 75° |
| 2026-04-30 09:09 | 38.64947 | -92.03836 | 35158 ft | 543 kts | 75° |
| 2026-04-30 09:10 | 38.66295 | -91.94345 | 35158 ft | 542 kts | 75° |
| 2026-04-30 09:10 | 38.67639 | -91.84838 | 35159 ft | 542 kts | 76° |
| 2026-04-30 09:11 | 38.68751 | -91.76938 | 35164 ft | 542 kts | 76° |
| 2026-04-30 09:11 | 38.70085 | -91.67446 | 35167 ft | 542 kts | 76° |
| 2026-04-30 09:12 | 38.71422 | -91.57946 | 35168 ft | 542 kts | 76° |
| 2026-04-30 09:12 | 38.72734 | -91.48441 | 35184 ft | 542 kts | 76° |
| 2026-04-30 09:13 | 38.74029 | -91.38940 | 35178 ft | 541 kts | 76° |
| 2026-04-30 09:13 | 38.75329 | -91.29451 | 35182 ft | 541 kts | 76° |
| 2026-04-30 09:14 | 38.76622 | -91.19970 | 35548 ft | 539 kts | 76° |
| 2026-04-30 09:14 | 38.77256 | -91.15239 | 35787 ft | 539 kts | 76° |
| 2026-04-30 09:14 | 38.77887 | -91.10507 | 36026 ft | 538 kts | 76° |
| 2026-04-30 09:15 | 38.78520 | -91.05777 | 36242 ft | 538 kts | 76° |
| 2026-04-30 09:15 | 38.79153 | -91.01046 | 36432 ft | 539 kts | 76° |
| 2026-04-30 09:15 | 38.79787 | -90.96311 | 36612 ft | 539 kts | 76° |
| 2026-04-30 09:15 | 38.80423 | -90.91572 | 36781 ft | 540 kts | 76° |
| 2026-04-30 09:16 | 38.81046 | -90.86891 | 36951 ft | 540 kts | 76° |
| 2026-04-30 09:16 | 38.81671 | -90.82141 | 37114 ft | 541 kts | 76° |
| 2026-04-30 09:16 | 38.82913 | -90.72604 | 37146 ft | 542 kts | 76° |
| 2026-04-30 09:17 | 38.84160 | -90.63086 | 37142 ft | 542 kts | 76° |
| 2026-04-30 09:17 | 38.85404 | -90.53545 | 37140 ft | 542 kts | 77° |
| 2026-04-30 09:18 | 38.87093 | -90.44206 | 37139 ft | 535 kts | 66° |
| 2026-04-30 09:18 | 38.89391 | -90.35112 | 37188 ft | 535 kts | 66° |
| 2026-04-30 09:19 | 38.91672 | -90.26037 | 37147 ft | 533 kts | 66° |
| 2026-04-30 09:19 | 38.93920 | -90.17030 | 37158 ft | 534 kts | 66° |
| 2026-04-30 09:20 | 38.96168 | -90.07986 | 37160 ft | 534 kts | 67° |
| 2026-04-30 09:20 | 38.98425 | -89.98890 | 37172 ft | 534 kts | 67° |
| 2026-04-30 09:21 | 39.00677 | -89.89786 | 37169 ft | 534 kts | 67° |
| 2026-04-30 09:21 | 39.02922 | -89.80683 | 37165 ft | 534 kts | 67° |
| 2026-04-30 09:22 | 39.05159 | -89.71576 | 37162 ft | 534 kts | 67° |
| 2026-04-30 09:22 | 39.07387 | -89.62454 | 37159 ft | 534 kts | 67° |
| 2026-04-30 09:23 | 39.09607 | -89.53340 | 37158 ft | 533 kts | 67° |
| 2026-04-30 09:23 | 39.11817 | -89.44219 | 37157 ft | 534 kts | 67° |
| 2026-04-30 09:24 | 39.14011 | -89.35104 | 37147 ft | 531 kts | 67° |
| 2026-04-30 09:24 | 39.16206 | -89.26018 | 37151 ft | 531 kts | 67° |
| 2026-04-30 09:25 | 39.18400 | -89.16924 | 37162 ft | 531 kts | 68° |
| 2026-04-30 09:25 | 39.20562 | -89.07877 | 37162 ft | 531 kts | 68° |
| 2026-04-30 09:26 | 39.22725 | -88.98761 | 37167 ft | 532 kts | 68° |
| 2026-04-30 09:26 | 39.24880 | -88.89638 | 37166 ft | 532 kts | 68° |
| 2026-04-30 09:27 | 39.27035 | -88.80508 | 37180 ft | 532 kts | 68° |
| 2026-04-30 09:27 | 39.29183 | -88.71387 | 37167 ft | 531 kts | 68° |
| 2026-04-30 09:28 | 39.31328 | -88.62244 | 37162 ft | 531 kts | 68° |
| 2026-04-30 09:28 | 39.33459 | -88.53107 | 37160 ft | 531 kts | 68° |
| 2026-04-30 09:29 | 39.35576 | -88.43978 | 37143 ft | 528 kts | 68° |
| 2026-04-30 09:29 | 39.37681 | -88.34897 | 37140 ft | 527 kts | 68° |
| 2026-04-30 09:30 | 39.39781 | -88.25816 | 37138 ft | 527 kts | 68° |
| 2026-04-30 09:30 | 39.41866 | -88.16710 | 37142 ft | 528 kts | 69° |
| 2026-04-30 09:31 | 39.43927 | -88.07673 | 37153 ft | 528 kts | 69° |
| 2026-04-30 09:31 | 39.46007 | -87.98565 | 37148 ft | 528 kts | 69° |
| 2026-04-30 09:32 | 39.48077 | -87.89449 | 37142 ft | 528 kts | 69° |
| 2026-04-30 09:32 | 39.50136 | -87.80325 | 37144 ft | 528 kts | 69° |
| 2026-04-30 09:33 | 39.52193 | -87.71194 | 37146 ft | 528 kts | 69° |
| 2026-04-30 09:33 | 39.54242 | -87.62055 | 37148 ft | 528 kts | 69° |
| 2026-04-30 09:34 | 39.56286 | -87.52906 | 37121 ft | 527 kts | 69° |
| 2026-04-30 09:34 | 39.58304 | -87.43811 | 37105 ft | 524 kts | 69° |
| 2026-04-30 09:35 | 39.60313 | -87.34720 | 37111 ft | 525 kts | 70° |
| 2026-04-30 09:35 | 39.62321 | -87.25599 | 37139 ft | 526 kts | 70° |
| 2026-04-30 09:36 | 39.64326 | -87.16488 | 37139 ft | 526 kts | 70° |
| 2026-04-30 09:36 | 39.66326 | -87.07356 | 37131 ft | 526 kts | 70° |
| 2026-04-30 09:37 | 39.68315 | -86.98216 | 37135 ft | 526 kts | 70° |
| 2026-04-30 09:37 | 39.70302 | -86.89074 | 37135 ft | 526 kts | 70° |
| 2026-04-30 09:38 | 39.72273 | -86.79978 | 37126 ft | 526 kts | 70° |
| 2026-04-30 09:38 | 39.74231 | -86.70830 | 37127 ft | 526 kts | 70° |
| 2026-04-30 09:39 | 39.76184 | -86.61656 | 37143 ft | 525 kts | 71° |
| 2026-04-30 09:39 | 39.78126 | -86.52550 | 37084 ft | 521 kts | 71° |
| 2026-04-30 09:40 | 39.80060 | -86.43469 | 37092 ft | 521 kts | 71° |
| 2026-04-30 09:40 | 39.81986 | -86.34379 | 37100 ft | 521 kts | 71° |
| 2026-04-30 09:41 | 39.83920 | -86.25285 | 37106 ft | 521 kts | 71° |
| 2026-04-30 09:41 | 39.85871 | -86.16198 | 37110 ft | 522 kts | 71° |
| 2026-04-30 09:42 | 39.87804 | -86.07141 | 37115 ft | 522 kts | 71° |
| 2026-04-30 09:42 | 39.89724 | -85.98042 | 37117 ft | 522 kts | 71° |
| 2026-04-30 09:43 | 39.91630 | -85.88989 | 37107 ft | 522 kts | 71° |
| 2026-04-30 09:43 | 39.93545 | -85.79872 | 37108 ft | 522 kts | 71° |
| 2026-04-30 09:44 | 39.95449 | -85.70747 | 37148 ft | 522 kts | 71° |
| 2026-04-30 09:44 | 39.97336 | -85.61680 | 37067 ft | 517 kts | 71° |
| 2026-04-30 09:45 | 39.99211 | -85.52622 | 37067 ft | 517 kts | 71° |
| 2026-04-30 09:45 | 40.01081 | -85.43574 | 37072 ft | 517 kts | 71° |
| 2026-04-30 09:46 | 40.02943 | -85.34495 | 37069 ft | 517 kts | 72° |
| 2026-04-30 09:46 | 40.04799 | -85.25407 | 37079 ft | 518 kts | 72° |
| 2026-04-30 09:47 | 40.06644 | -85.16318 | 37083 ft | 518 kts | 72° |
| 2026-04-30 09:47 | 40.08492 | -85.07224 | 37087 ft | 518 kts | 72° |
| 2026-04-30 09:48 | 40.10336 | -84.98111 | 37083 ft | 518 kts | 72° |
| 2026-04-30 09:48 | 40.12156 | -84.89047 | 37077 ft | 519 kts | 72° |
| 2026-04-30 09:49 | 40.13978 | -84.79922 | 37107 ft | 519 kts | 72° |
| 2026-04-30 09:49 | 40.15786 | -84.70822 | 37043 ft | 515 kts | 72° |
| 2026-04-30 09:50 | 40.17586 | -84.61746 | 37050 ft | 515 kts | 72° |
| 2026-04-30 09:50 | 40.19383 | -84.52669 | 37056 ft | 516 kts | 72° |
| 2026-04-30 09:51 | 40.21169 | -84.43581 | 37058 ft | 516 kts | 73° |
| 2026-04-30 09:51 | 40.22942 | -84.34486 | 37051 ft | 516 kts | 73° |
| 2026-04-30 09:52 | 40.24712 | -84.25384 | 37044 ft | 516 kts | 73° |
| 2026-04-30 09:52 | 40.26465 | -84.16336 | 37045 ft | 516 kts | 73° |
| 2026-04-30 09:53 | 40.28217 | -84.07215 | 37037 ft | 517 kts | 75° |
| 2026-04-30 09:53 | 40.28971 | -83.97847 | 37034 ft | 519 kts | 87° |
| 2026-04-30 09:54 | 40.29219 | -83.88397 | 37027 ft | 519 kts | 87° |
| 2026-04-30 09:54 | 40.29469 | -83.78940 | 37030 ft | 520 kts | 87° |
| 2026-04-30 09:55 | 40.29713 | -83.69478 | 37033 ft | 520 kts | 88° |
| 2026-04-30 09:55 | 40.29946 | -83.60001 | 37069 ft | 520 kts | 88° |
| 2026-04-30 09:56 | 40.30168 | -83.50571 | 36997 ft | 516 kts | 88° |
| 2026-04-30 09:56 | 40.30378 | -83.41169 | 36999 ft | 516 kts | 88° |
| 2026-04-30 09:57 | 40.30591 | -83.31761 | 37013 ft | 517 kts | 88° |
| 2026-04-30 09:57 | 40.30791 | -83.22349 | 37008 ft | 517 kts | 88° |
| 2026-04-30 09:58 | 40.30978 | -83.12988 | 37011 ft | 517 kts | 88° |
| 2026-04-30 09:58 | 40.31167 | -83.03578 | 37011 ft | 516 kts | 88° |
| 2026-04-30 09:59 | 40.31492 | -82.86295 | 37012 ft | 516 kts | 88° |
| 2026-04-30 10:00 | 40.31736 | -82.72241 | 36999 ft | 517 kts | 89° |
| 2026-04-30 10:01 | 40.31963 | -82.58101 | 36993 ft | 517 kts | 89° |
| 2026-04-30 10:02 | 40.32162 | -82.43960 | 36990 ft | 518 kts | 89° |
| 2026-04-30 10:02 | 40.32298 | -82.34527 | 36976 ft | 518 kts | 89° |
| 2026-04-30 10:03 | 40.32430 | -82.25089 | 36981 ft | 518 kts | 89° |
| 2026-04-30 10:03 | 40.32545 | -82.15648 | 36988 ft | 518 kts | 89° |
| 2026-04-30 10:04 | 40.32649 | -82.06207 | 36981 ft | 518 kts | 89° |
| 2026-04-30 10:04 | 40.32753 | -81.96774 | 36981 ft | 518 kts | 89° |
| 2026-04-30 10:05 | 40.32848 | -81.87329 | 36980 ft | 518 kts | 89° |
| 2026-04-30 10:05 | 40.32929 | -81.77870 | 36980 ft | 518 kts | 89° |
| 2026-04-30 10:06 | 40.33005 | -81.68486 | 36979 ft | 518 kts | 89° |
| 2026-04-30 10:06 | 40.33078 | -81.59044 | 36973 ft | 518 kts | 90° |
| 2026-04-30 10:07 | 40.33137 | -81.49600 | 36968 ft | 518 kts | 90° |
| 2026-04-30 10:07 | 40.33187 | -81.40150 | 36963 ft | 519 kts | 90° |
| 2026-04-30 10:08 | 40.33232 | -81.30684 | 36967 ft | 519 kts | 90° |
| 2026-04-30 10:08 | 40.33270 | -81.21228 | 36957 ft | 519 kts | 90° |
| 2026-04-30 10:09 | 40.33308 | -81.11777 | 36956 ft | 518 kts | 90° |
| 2026-04-30 10:09 | 40.33336 | -81.02330 | 36954 ft | 518 kts | 90° |
| 2026-04-30 10:10 | 40.33347 | -80.92887 | 36951 ft | 518 kts | 90° |
| 2026-04-30 10:10 | 40.33351 | -80.83438 | 36939 ft | 518 kts | 91° |
| 2026-04-30 10:11 | 40.33352 | -80.74001 | 36948 ft | 518 kts | 91° |
| 2026-04-30 10:11 | 40.33342 | -80.64572 | 36951 ft | 518 kts | 91° |
| 2026-04-30 10:12 | 40.33325 | -80.55187 | 36959 ft | 518 kts | 91° |
| 2026-04-30 10:12 | 40.33304 | -80.45732 | 36935 ft | 518 kts | 91° |
| 2026-04-30 10:13 | 40.33276 | -80.36298 | 36933 ft | 517 kts | 91° |
| 2026-04-30 10:13 | 40.33235 | -80.26853 | 36934 ft | 518 kts | 91° |
| 2026-04-30 10:14 | 40.33189 | -80.17427 | 36934 ft | 518 kts | 91° |
| 2026-04-30 10:14 | 40.33103 | -80.03320 | 36914 ft | 518 kts | 92° |
| 2026-04-30 10:15 | 40.33030 | -79.93861 | 36923 ft | 519 kts | 92° |
| 2026-04-30 10:15 | 40.32946 | -79.84397 | 36929 ft | 519 kts | 92° |
| 2026-04-30 10:16 | 40.32862 | -79.74942 | 36916 ft | 519 kts | 92° |
| 2026-04-30 10:17 | 40.32736 | -79.60844 | 36948 ft | 517 kts | 92° |
| 2026-04-30 10:17 | 40.32586 | -79.46708 | 36949 ft | 516 kts | 92° |
| 2026-04-30 10:18 | 40.32469 | -79.37307 | 36934 ft | 516 kts | 93° |
| 2026-04-30 10:19 | 40.32270 | -79.23188 | 36927 ft | 517 kts | 93° |
| 2026-04-30 10:19 | 40.32141 | -79.13765 | 36934 ft | 517 kts | 93° |
| 2026-04-30 10:20 | 40.32008 | -79.04334 | 36895 ft | 518 kts | 93° |
| 2026-04-30 10:20 | 40.31792 | -78.90229 | 36883 ft | 519 kts | 93° |
| 2026-04-30 10:21 | 40.31610 | -78.80772 | 36889 ft | 519 kts | 96° |
| 2026-04-30 10:21 | 40.30624 | -78.71459 | 36918 ft | 515 kts | 105° |
| 2026-04-30 10:22 | 40.28998 | -78.62341 | 36893 ft | 514 kts | 107° |
| 2026-04-30 10:22 | 40.27455 | -78.53175 | 36889 ft | 517 kts | 105° |
| 2026-04-30 10:23 | 40.26156 | -78.43910 | 36896 ft | 518 kts | 103° |
| 2026-04-30 10:23 | 40.24917 | -78.34620 | 36896 ft | 518 kts | 103° |
| 2026-04-30 10:24 | 40.23617 | -78.25349 | 36900 ft | 518 kts | 104° |
| 2026-04-30 10:24 | 40.22261 | -78.16096 | 36902 ft | 518 kts | 104° |
| 2026-04-30 10:25 | 40.20890 | -78.06830 | 36886 ft | 520 kts | 104° |
| 2026-04-30 10:25 | 40.19530 | -77.97517 | 36871 ft | 521 kts | 104° |
| 2026-04-30 10:26 | 40.18847 | -77.92841 | 36165 ft | 528 kts | 104° |
| 2026-04-30 10:26 | 40.18146 | -77.88081 | 35240 ft | 536 kts | 105° |
| 2026-04-30 10:26 | 40.17452 | -77.83367 | 34442 ft | 533 kts | 105° |
| 2026-04-30 10:26 | 40.16758 | -77.78665 | 33966 ft | 519 kts | 105° |
| 2026-04-30 10:27 | 40.16071 | -77.74030 | 32848 ft | 520 kts | 105° |
| 2026-04-30 10:27 | 40.15381 | -77.69401 | 31958 ft | 517 kts | 105° |
| 2026-04-30 10:27 | 40.14695 | -77.64814 | 31154 ft | 511 kts | 105° |
| 2026-04-30 10:27 | 40.14015 | -77.60278 | 30393 ft | 506 kts | 105° |
| 2026-04-30 10:28 | 40.13341 | -77.55793 | 29521 ft | 501 kts | 106° |
| 2026-04-30 10:28 | 40.12668 | -77.51335 | 28887 ft | 497 kts | 105° |
| 2026-04-30 10:28 | 40.12003 | -77.46922 | 28443 ft | 492 kts | 105° |
| 2026-04-30 10:28 | 40.11367 | -77.42582 | 28253 ft | 480 kts | 105° |
| 2026-04-30 10:29 | 40.10759 | -77.38358 | 28108 ft | 469 kts | 104° |
| 2026-04-30 10:29 | 40.10400 | -77.34138 | 27863 ft | 465 kts | 98° |
| 2026-04-30 10:29 | 40.10163 | -77.29927 | 27602 ft | 471 kts | 97° |
| 2026-04-30 10:29 | 40.09925 | -77.25560 | 27346 ft | 491 kts | 97° |
| 2026-04-30 10:30 | 40.09685 | -77.21045 | 27057 ft | 507 kts | 97° |
| 2026-04-30 10:30 | 40.09445 | -77.16407 | 26831 ft | 512 kts | 96° |
| 2026-04-30 10:30 | 40.09207 | -77.11769 | 26871 ft | 514 kts | 97° |
| 2026-04-30 10:30 | 40.08965 | -77.07112 | 26857 ft | 514 kts | 97° |
| 2026-04-30 10:31 | 40.08723 | -77.02519 | 26861 ft | 514 kts | 97° |
| 2026-04-30 10:31 | 40.08472 | -76.97864 | 26860 ft | 514 kts | 97° |
| 2026-04-30 10:31 | 40.08214 | -76.93199 | 26850 ft | 514 kts | 97° |
| 2026-04-30 10:31 | 40.07956 | -76.88555 | 26852 ft | 514 kts | 97° |
| 2026-04-30 10:32 | 40.07696 | -76.83889 | 26842 ft | 514 kts | 97° |
| 2026-04-30 10:32 | 40.07435 | -76.79246 | 26855 ft | 514 kts | 97° |
| 2026-04-30 10:32 | 40.07172 | -76.74606 | 26854 ft | 513 kts | 97° |
| 2026-04-30 10:32 | 40.06906 | -76.69950 | 26855 ft | 513 kts | 97° |
| 2026-04-30 10:33 | 40.06639 | -76.65306 | 26856 ft | 513 kts | 97° |
| 2026-04-30 10:33 | 40.06371 | -76.60654 | 26852 ft | 513 kts | 97° |
| 2026-04-30 10:33 | 40.06103 | -76.56011 | 26850 ft | 513 kts | 97° |
| 2026-04-30 10:33 | 40.05834 | -76.51372 | 26813 ft | 514 kts | 97° |
| 2026-04-30 10:34 | 40.05563 | -76.46738 | 26428 ft | 507 kts | 97° |
| 2026-04-30 10:34 | 40.05299 | -76.42195 | 26166 ft | 495 kts | 97° |
| 2026-04-30 10:34 | 40.05039 | -76.37770 | 25959 ft | 482 kts | 97° |
| 2026-04-30 10:34 | 40.04777 | -76.33404 | 25343 ft | 481 kts | 97° |
| 2026-04-30 10:35 | 40.04514 | -76.29081 | 24853 ft | 477 kts | 97° |
| 2026-04-30 10:35 | 40.04255 | -76.24832 | 24367 ft | 472 kts | 97° |
| 2026-04-30 10:35 | 40.03997 | -76.20603 | 24056 ft | 463 kts | 97° |
| 2026-04-30 10:35 | 40.03743 | -76.16437 | 23664 ft | 458 kts | 97° |
| 2026-04-30 10:36 | 40.03489 | -76.12319 | 23224 ft | 453 kts | 97° |
| 2026-04-30 10:36 | 40.03233 | -76.08240 | 22630 ft | 451 kts | 97° |
| 2026-04-30 10:36 | 40.02977 | -76.04168 | 22017 ft | 450 kts | 97° |
| 2026-04-30 10:36 | 40.02718 | -76.00102 | 21415 ft | 449 kts | 97° |
| 2026-04-30 10:37 | 40.02458 | -75.96062 | 20897 ft | 446 kts | 97° |
| 2026-04-30 10:37 | 40.02200 | -75.92046 | 20431 ft | 443 kts | 97° |
| 2026-04-30 10:37 | 40.01946 | -75.88054 | 19972 ft | 439 kts | 97° |
| 2026-04-30 10:37 | 40.01696 | -75.84106 | 19514 ft | 436 kts | 97° |
| 2026-04-30 10:38 | 40.01442 | -75.80169 | 19062 ft | 433 kts | 98° |
| 2026-04-30 10:38 | 40.01188 | -75.76287 | 18581 ft | 427 kts | 98° |
| 2026-04-30 10:38 | 40.00939 | -75.72467 | 17619 ft | 418 kts | 98° |
| 2026-04-30 10:38 | 40.00700 | -75.68789 | 17076 ft | 396 kts | 98° |
| 2026-04-30 10:39 | 40.00472 | -75.65270 | 16391 ft | 384 kts | 98° |
| 2026-04-30 10:39 | 40.00250 | -75.61876 | 16236 ft | 366 kts | 98° |
| 2026-04-30 10:39 | 40.00038 | -75.58662 | 15849 ft | 356 kts | 98° |
| 2026-04-30 10:39 | 39.99824 | -75.55472 | 15442 ft | 353 kts | 98° |
| 2026-04-30 10:40 | 39.99606 | -75.52284 | 15000 ft | 353 kts | 98° |
| 2026-04-30 10:40 | 39.99386 | -75.49089 | 14594 ft | 354 kts | 98° |
| 2026-04-30 10:40 | 39.99166 | -75.45894 | 14175 ft | 354 kts | 98° |
| 2026-04-30 10:40 | 39.98960 | -75.42721 | 13615 ft | 348 kts | 94° |
| 2026-04-30 10:41 | 39.99221 | -75.39592 | 12765 ft | 346 kts | 77° |
| 2026-04-30 10:41 | 39.99972 | -75.36641 | 12058 ft | 339 kts | 69° |
| 2026-04-30 10:41 | 40.00817 | -75.33846 | 11617 ft | 325 kts | 68° |
| 2026-04-30 10:41 | 40.01644 | -75.31141 | 11006 ft | 318 kts | 71° |
| 2026-04-30 10:42 | 40.02106 | -75.28391 | 10381 ft | 310 kts | 85° |
| 2026-04-30 10:42 | 40.02328 | -75.25645 | 9756 ft | 306 kts | 87° |
| 2026-04-30 10:42 | 40.02520 | -75.22980 | 9125 ft | 302 kts | 87° |
| 2026-04-30 10:42 | 40.02705 | -75.20255 | 8672 ft | 300 kts | 87° |
| 2026-04-30 10:43 | 40.02879 | -75.17538 | 8358 ft | 294 kts | 87° |
| 2026-04-30 10:43 | 40.03037 | -75.14933 | 7774 ft | 289 kts | 87° |
| 2026-04-30 10:43 | 40.03184 | -75.12340 | 7170 ft | 285 kts | 87° |
| 2026-04-30 10:43 | 40.03250 | -75.09779 | 6647 ft | 281 kts | 95° |
| 2026-04-30 10:44 | 40.02804 | -75.07386 | 6254 ft | 274 kts | 114° |
| 2026-04-30 10:44 | 40.02290 | -75.06152 | 5989 ft | 270 kts | 130° |
| 2026-04-30 10:44 | 40.02144 | -75.05904 | 5923 ft | 269 kts | 130° |
| 2026-04-30 10:44 | 40.00824 | -75.04193 | 5398 ft | 266 kts | 141° |
| 2026-04-30 10:45 | 39.99442 | -75.02637 | 4961 ft | 256 kts | 142° |
| 2026-04-30 10:45 | 39.98104 | -75.01162 | 4692 ft | 249 kts | 142° |
| 2026-04-30 10:45 | 39.96763 | -74.99768 | 4390 ft | 244 kts | 152° |
| 2026-04-30 10:45 | 39.95195 | -74.99049 | 4100 ft | 238 kts | 172° |
| 2026-04-30 10:46 | 39.93568 | -74.99115 | 3681 ft | 234 kts | 202° |
| 2026-04-30 10:46 | 39.92273 | -75.00207 | 3449 ft | 220 kts | 231° |
| 2026-04-30 10:46 | 39.91559 | -75.01888 | 3229 ft | 207 kts | 256° |
| 2026-04-30 10:46 | 39.91206 | -75.03661 | 2964 ft | 197 kts | 259° |
| 2026-04-30 10:47 | 39.90877 | -75.05340 | 2699 ft | 186 kts | 259° |
| 2026-04-30 10:47 | 39.90669 | -75.06399 | 2540 ft | 179 kts | 259° |
| 2026-04-30 10:47 | 39.90367 | -75.07930 | 2319 ft | 170 kts | 259° |
| 2026-04-30 10:47 | 39.90080 | -75.09384 | 2107 ft | 160 kts | 258° |
| 2026-04-30 10:48 | 39.89810 | -75.10748 | 1891 ft | 153 kts | 258° |
| 2026-04-30 10:48 | 39.89548 | -75.12076 | 1687 ft | 150 kts | 257° |
| 2026-04-30 10:48 | 39.89297 | -75.13342 | 1487 ft | 141 kts | 257° |
| 2026-04-30 10:48 | 39.89054 | -75.14567 | 1300 ft | 139 kts | 257° |
| 2026-04-30 10:49 | 39.88813 | -75.15786 | 1103 ft | 139 kts | 257° |
| 2026-04-30 10:49 | 39.88570 | -75.17010 | 897 ft | 141 kts | 256° |
| 2026-04-30 10:49 | 39.88327 | -75.18251 | 708 ft | 142 kts | 256° |
| 2026-04-30 10:49 | 39.88085 | -75.19509 | 513 ft | 143 kts | 255° |
| 2026-04-30 10:50 | 39.87827 | -75.20764 | 330 ft | 144 kts | 256° |
| 2026-04-30 10:50 | 39.87577 | -75.22020 | 122 ft | 144 kts | 256° |
| 2026-04-30 10:50 | 39.87333 | -75.23248 | 28 ft | 127 kts | 256° |
| 2026-04-30 10:50 | 39.87159 | -75.24119 | 30 ft | 68 kts | 255° |
| 2026-04-30 10:51 | 39.87065 | -75.24591 | 26 ft | 40 kts | 256° |
| 2026-04-30 10:51 | 39.87052 | -75.24795 | 30 ft | 12 kts | 305° |
| 2026-04-30 10:51 | 39.87089 | -75.24824 | 27 ft | 0 kts | 341° |
| 2026-04-30 10:52 | 39.87093 | -75.24826 | 27 ft | 3 kts | 343° |
| 2026-04-30 10:52 | 39.87128 | -75.24838 | 27 ft | 6 kts | 346° |
| 2026-04-30 10:52 | 39.87180 | -75.24844 | 27 ft | 8 kts | 16° |
| 2026-04-30 10:52 | 39.87212 | -75.24778 | 27 ft | 10 kts | 75° |
| 2026-04-30 10:53 | 39.87231 | -75.24680 | 25 ft | 13 kts | 76° |
| 2026-04-30 10:53 | 39.87253 | -75.24570 | 28 ft | 12 kts | 75° |
| 2026-04-30 10:53 | 39.87276 | -75.24456 | 29 ft | 14 kts | 76° |
| 2026-04-30 10:53 | 39.87301 | -75.24330 | 25 ft | 14 kts | 75° |
| 2026-04-30 10:54 | 39.87337 | -75.24239 | 29 ft | 9 kts | 32° |
| 2026-04-30 10:54 | 39.87387 | -75.24233 | 25 ft | 5 kts | 353° |
| 2026-04-30 10:54 | 39.87409 | -75.24239 | 27 ft | 3 kts | 347° |
| 2026-04-30 10:54 | 39.87423 | -75.24252 | 25 ft | 3 kts | 313° |
| 2026-04-30 10:55 | 39.87435 | -75.24287 | 29 ft | 4 kts | 288° |
| 2026-04-30 10:55 | 39.87438 | -75.24303 | 29 ft | 1 kts | 287° |
| 2026-04-30 10:55 | 39.87439 | -75.24304 | 29 ft | 0 kts | 287° |
| 2026-04-30 11:01 | 39.87439 | -75.24305 | 26 ft | 0 kts | 287° |